Impacts METAR Board
IDs:

KEET - Alabaster/Shelby Cnt, AL, US

Updated at: 1000 UTC 17 Feb 2019
Potential Impact None Slight Moderate High
Time 16/22Z 16/23Z 17/00Z 17/01Z 17/02Z 17/03Z 17/04Z 17/05Z 17/06Z 17/07Z 17/08Z 17/09Z 17/10Z
Temp50 50 50 48 49 48 48 48 49 49 50 50 50
Dewpt45 45 45 44 45 45 45 46 46 47 47 48 49
Altim29.84 29.85 29.84 29.87 29.86 29.85 29.84 29.84 29.84 29.84 29.83 29.82 29.82
VIS10 10 10 10 10 10 8 8 9 9 10 10 9
CIG12 13 12 -- 12 10 -- -- 110 110 46 28 20
CoverOVCOVCOVCFEWOVCOVCFEWFEWOVCOVCOVCOVCOVC
FltCatMVFRMVFRMVFRVFRMVFRMVFRVFRVFRVFRVFRVFRMVFRMVFR
WX--------------------------
WDir3302903603300006010001101000
WSpd6 4 4 3 0 0 0 3 3 0 4 3 0
WGst-- -- -- -- -- -- -- -- -- -- -- -- --
Raw hourly METARs
KEET 162153Z AUTO 33006KT 10SM OVC012 10/07 A2984 RMK AO2 SLP102 T01000072
KEET 162253Z AUTO 29004KT 10SM OVC013 10/07 A2985 RMK AO2 SLP104 T01000072
KEET 162353Z AUTO 36004KT 10SM OVC012 10/07 A2984 RMK AO2 SLP101 T01000072 10106 20094 58001
KEET 170053Z AUTO 33003KT 10SM FEW013 09/07 A2987 RMK AO2 SLP112 T00890067
KEET 170153Z AUTO 00000KT 10SM OVC012 09/07 A2986 RMK AO2 SLP111 T00940072
KEET 170253Z AUTO 00000KT 10SM OVC010 09/07 A2985 RMK AO2 SLP106 T00890072 50003
KEET 170353Z AUTO 00000KT 8SM FEW009 09/07 A2984 RMK AO2 SLP105 T00890072
KEET 170453Z AUTO 06003KT 8SM FEW120 09/08 A2984 RMK AO2 SLP105 T00890078
KEET 170553Z AUTO 10003KT 9SM OVC110 09/08 A2984 RMK AO2 RAB36E46 SLP103 P0000 60000 T00940078 10100 20089 401720089 58002
KEET 170653Z AUTO 00000KT 9SM FEW034 OVC110 09/08 A2984 RMK AO2 RAB09E24 SLP102 P0000 T00940083
KEET 170753Z AUTO 11004KT 10SM FEW027 OVC046 10/08 A2983 RMK AO2 SLP098 T01000083
KEET 170853Z AUTO 10003KT 10SM BKN028 OVC047 10/09 A2982 RMK AO2 SLP096 60000 T01000089 56006
KEET 170953Z AUTO 00000KT 9SM OVC020 10/09 A2982 RMK AO2 RAB00E34 SLP098 P0001 T01000094



Page loaded:  10:12 UTC  |   02:12 AM Pacific  |   03:12 AM Mountain  |   04:12 AM Central  |   05:12 AM Eastern

 

ADVISORIES

FORECASTS

FORECASTS

OBSERVATIONS

USER TOOLS

ABOUT US